Time;durP1;ratioP1;P1;durP2;ratioP2;P2;SDS_P1;SDS_P2;PMS_P1;PMS_P2;Temp;Humidity;BMP_temperature;BMP_pressure;BME280_temperature;BME280_humidity;BME280_pressure;Samples;Min_cycle;Max_cycle;Signal;HPM_P1;HPM_P2
2022/06/08 00:01:46;;;;;;;34.45;23.70;;;;;;;14.14;97.82;101023.88;4778260;30;20532;-86
2022/06/08 00:04:13;;;;;;;31.10;21.75;;;;;;;14.12;97.65;101028.38;4734213;30;20047;-87
2022/06/08 00:06:39;;;;;;;35.33;24.17;;;;;;;14.16;97.24;101032.72;4740501;30;20139;-87
2022/06/08 00:09:05;;;;;;;34.20;24.10;;;;;;;14.14;97.31;101027.44;4754771;29;20169;-87
2022/06/08 00:11:30;;;;;;;37.53;24.98;;;;;;;14.14;97.86;101023.88;4742954;30;20109;-87
2022/06/08 00:13:57;;;;;;;33.80;24.38;;;;;;;14.12;97.68;101017.75;4736867;30;20500;-87
2022/06/08 00:16:23;;;;;;;38.10;26.35;;;;;;;14.07;98.57;101015.25;4751994;30;20051;-85
2022/06/08 00:18:48;;;;;;;38.50;26.30;;;;;;;14.06;98.82;101008.19;4740821;30;20031;-86
2022/06/08 00:21:15;;;;;;;35.80;25.48;;;;;;;14.05;98.34;101011.78;4726319;30;20109;-86
2022/06/08 00:23:43;;;;;;;35.53;25.10;;;;;;;14.05;97.79;101010.91;4752889;30;20130;-86
2022/06/08 00:26:09;;;;;;;37.70;25.25;;;;;;;14.05;97.91;101010.91;4740656;30;20058;-87
2022/06/08 00:28:34;;;;;;;36.53;24.52;;;;;;;14.03;97.73;101008.28;4767623;30;20135;-87
2022/06/08 00:31:01;;;;;;;35.85;26.50;;;;;;;14.01;98.45;101007.47;4755153;30;20044;-87
2022/06/08 00:33:27;;;;;;;37.63;26.67;;;;;;;14.00;98.99;100999.53;4755206;30;20052;-87
2022/06/08 00:35:53;;;;;;;32.30;24.88;;;;;;;13.95;98.75;101002.34;4737010;30;20411;-86
2022/06/08 00:38:19;;;;;;;42.38;27.48;;;;;;;13.92;98.65;101007.75;4757977;29;20428;-87
2022/06/08 00:41:06;;;;;;;32.05;24.75;;;;;;;13.90;98.30;101007.81;4758361;30;20457;-87
2022/06/08 00:43:32;;;;;;;36.38;25.80;;;;;;;13.86;99.03;100992.00;4762482;30;20080;-86
2022/06/08 00:45:57;;;;;;;36.53;26.48;;;;;;;13.86;98.31;100998.19;4757670;30;20494;-87
2022/06/08 00:48:27;;;;;;;36.47;25.35;;;;;;;13.83;98.03;100997.44;4755465;30;20047;-87
2022/06/08 00:50:55;;;;;;;32.03;25.27;;;;;;;13.77;97.79;100987.84;4767255;30;20051;-87
2022/06/08 00:53:32;;;;;;;33.28;25.35;;;;;;;13.77;98.06;100985.19;4761735;30;20042;-87
2022/06/08 00:56:01;;;;;;;33.88;25.88;;;;;;;13.73;98.32;100981.75;4757621;30;20058;-87
2022/06/08 00:58:30;;;;;;;33.28;24.77;;;;;;;13.72;97.65;100987.13;4759585;30;20298;-87
2022/06/08 01:00:56;;;;;;;31.40;22.52;;;;;;;13.70;97.42;100976.53;4767157;30;20181;-86
2022/06/08 01:03:22;;;;;;;33.15;25.40;;;;;;;13.69;98.03;100971.25;4754630;30;20587;-86
2022/06/08 01:06:01;;;;;;;34.38;25.13;;;;;;;13.68;98.15;100972.19;4770917;30;20047;-87
2022/06/08 01:08:40;;;;;;;39.10;26.92;;;;;;;13.67;97.77;100975.75;4769074;30;20054;-87
2022/06/08 01:11:31;;;;;;;;;;;;;;;13.74;96.80;100964.00;4758345;30;20046;-86
2022/06/08 01:14:01;;;;;;;34.67;24.92;;;;;;;13.61;96.96;100966.19;4754921;30;19918;-87
2022/06/08 01:16:27;;;;;;;32.85;25.00;;;;;;;13.59;97.71;100960.03;4765193;30;20051;-87
2022/06/08 01:18:54;;;;;;;31.25;22.75;;;;;;;13.57;97.58;100959.22;4775820;30;20463;-87
2022/06/08 01:21:24;;;;;;;36.35;27.15;;;;;;;13.57;98.27;100956.56;4777475;30;20043;-86
2022/06/08 01:24:01;;;;;;;37.13;26.38;;;;;;;13.51;98.52;100949.66;4740198;30;20044;-86
2022/06/08 01:26:38;;;;;;;38.20;27.63;;;;;;;13.50;98.15;100952.34;4764060;30;20400;-86
2022/06/08 01:29:25;;;;;;;37.13;26.92;;;;;;;13.49;98.85;100943.50;4759123;30;20047;-87
2022/06/08 01:32:09;;;;;;;37.03;27.25;;;;;;;13.50;99.34;100941.72;4745845;30;20059;-87
2022/06/08 01:34:40;;;;;;;36.40;27.30;;;;;;;13.46;98.83;100932.09;4749726;30;20073;-86
2022/06/08 01:37:14;;;;;;;35.63;26.67;;;;;;;13.44;98.53;100928.63;4767056;30;20087;-87
2022/06/08 01:40:01;;;;;;;36.58;27.20;;;;;;;13.40;98.33;100927.88;4748693;30;20059;-87
2022/06/08 01:43:01;;;;;;;37.00;27.60;;;;;;;13.43;98.34;100927.75;4753927;30;20480;-87
2022/06/08 01:46:14;;;;;;;35.08;26.77;;;;;;;13.40;98.37;100921.66;4739284;30;20052;-87
2022/06/08 01:48:45;;;;;;;33.60;26.13;;;;;;;13.35;98.13;100916.47;4706057;30;20070;-88
2022/06/08 01:51:38;;;;;;;35.63;25.92;;;;;;;13.31;97.88;100920.16;4739158;30;20048;-87
2022/06/08 01:54:20;;;;;;;33.25;26.85;;;;;;;13.28;97.61;100910.50;4749954;30;20106;-87
2022/06/08 01:56:52;;;;;;;34.20;26.00;;;;;;;13.28;98.89;100909.63;4740875;30;20075;-88
2022/06/08 01:59:34;;;;;;;33.92;26.25;;;;;;;13.28;99.43;100910.50;4741436;30;20442;-88
2022/06/08 02:02:16;;;;;;;34.38;27.33;;;;;;;13.27;99.51;100907.88;4741464;30;20054;-87
2022/06/08 02:04:55;;;;;;;37.50;26.50;;;;;;;13.24;99.70;100894.66;4745935;30;20052;-87
2022/06/08 02:07:42;;;;;;;32.92;26.10;;;;;;;13.24;98.98;100894.66;4753289;30;20044;-87
2022/06/08 02:10:26;;;;;;;34.97;24.63;;;;;;;13.22;98.32;100891.16;4766412;30;20047;-87
2022/06/08 02:13:33;;;;;;;39.78;27.10;;;;;;;13.20;98.25;100888.53;4755858;30;20047;-88
2022/06/08 02:16:26;;;;;;;32.58;24.85;;;;;;;13.16;98.15;100870.97;4711994;29;20059;-87
2022/06/08 02:18:59;;;;;;;34.05;25.38;;;;;;;13.14;99.01;100870.13;4753122;30;20078;-87
2022/06/08 02:21:33;;;;;;;34.80;26.23;;;;;;;13.15;99.09;100861.22;4768218;30;20048;-87
2022/06/08 02:24:26;;;;;;;32.90;25.42;;;;;;;13.16;98.42;100860.31;4753163;30;20043;-87
2022/06/08 02:27:07;;;;;;;29.55;22.60;;;;;;;13.10;98.50;100852.53;4753178;30;20457;-87
2022/06/08 02:29:43;;;;;;;33.38;26.25;;;;;;;13.09;98.67;100851.66;4753314;30;20127;-87
2022/06/08 02:35:06;;;;;;;32.85;25.38;;;;;;;13.04;99.22;100853.59;4742509;30;20145;-87
2022/06/08 02:37:33;;;;;;;38.67;25.23;;;;;;;13.01;99.54;100844.88;4768955;30;20105;-89
2022/06/08 02:40:12;;;;;;;36.90;25.05;;;;;;;13.00;99.72;100845.78;4741028;30;20051;-87
2022/06/08 02:42:44;;;;;;;36.35;25.00;;;;;;;12.98;99.36;100843.19;4755467;30;20113;-88
2022/06/08 02:45:15;;;;;;;34.22;26.25;;;;;;;12.96;99.09;100846.78;4753839;30;20134;-88
2022/06/08 02:47:45;;;;;;;33.78;24.92;;;;;;;12.91;98.94;100839.84;4739538;30;20044;-88
2022/06/08 02:50:15;;;;;;;;;;;;;;;12.99;98.08;100836.06;4742111;30;20031;-88
2022/06/08 02:52:47;;;;;;;33.33;23.50;;;;;;;12.89;99.53;100827.53;4753403;30;19917;-88
2022/06/08 02:55:28;;;;;;;30.63;24.65;;;;;;;12.88;100.00;100831.06;4753125;30;20154;-88
2022/06/08 02:58:09;;;;;;;32.03;22.88;;;;;;;12.83;99.99;100835.66;4752106;30;20052;-88
2022/06/08 03:00:52;;;;;;;32.78;21.83;;;;;;;12.81;99.48;100834.84;4757349;30;20101;-88
2022/06/08 03:03:35;;;;;;;33.85;24.08;;;;;;;12.79;99.43;100836.72;4755320;30;20100;-88
2022/06/08 03:06:06;;;;;;;28.40;21.40;;;;;;;12.77;99.78;100831.44;4746535;30;20504;-88
2022/06/08 03:08:39;;;;;;;26.08;20.50;;;;;;;12.75;98.75;100821.75;4750402;30;20048;-87
2022/06/08 03:11:08;;;;;;;26.30;19.67;;;;;;;12.74;98.83;100817.38;4761698;30;20078;-87
2022/06/08 03:13:41;;;;;;;25.52;19.52;;;;;;;12.72;98.40;100808.59;4757931;30;20131;-87
2022/06/08 03:16:08;;;;;;;27.52;20.52;;;;;;;12.73;99.04;100819.16;4781198;29;20046;-87
2022/06/08 03:18:35;;;;;;;28.33;21.17;;;;;;;12.74;100.00;100810.28;4743622;29;20052;-87
2022/06/08 03:21:03;;;;;;;27.52;20.00;;;;;;;12.72;99.70;100809.44;4779128;30;20051;-87
2022/06/08 03:23:32;;;;;;;30.25;21.60;;;;;;;12.72;99.83;100812.09;4739041;30;20128;-87
2022/06/08 03:25:58;;;;;;;26.95;19.92;;;;;;;12.70;99.49;100819.25;4755867;30;20044;-87
2022/06/08 03:28:23;;;;;;;26.88;20.13;;;;;;;12.72;98.83;100822.72;4742846;30;20055;-87
2022/06/08 03:30:51;;;;;;;27.45;19.48;;;;;;;12.67;99.12;100825.53;4741353;30;20051;-87
2022/06/08 03:33:17;;;;;;;27.23;19.65;;;;;;;12.63;98.46;100820.34;4748165;29;20036;-88
2022/06/08 03:35:43;;;;;;;24.90;18.77;;;;;;;12.65;99.30;100823.84;4748850;30;20131;-88
2022/06/08 03:38:09;;;;;;;26.90;19.88;;;;;;;12.63;99.50;100820.34;4746121;30;20150;-88
2022/06/08 03:40:37;;;;;;;27.20;18.63;;;;;;;12.62;99.68;100821.28;4771785;30;20133;-87
2022/06/08 03:43:03;;;;;;;28.08;18.60;;;;;;;12.61;99.70;100828.38;4723069;30;20080;-87
2022/06/08 03:45:39;;;;;;;26.65;19.27;;;;;;;12.66;100.00;100814.94;4752505;30;20055;-87
2022/06/08 03:48:07;;;;;;;25.55;18.98;;;;;;;12.69;100.00;100818.38;4767081;30;20048;-87
2022/06/08 03:50:32;;;;;;;25.63;16.85;;;;;;;12.73;100.00;100810.31;4746230;30;20044;-88
2022/06/08 03:53:04;;;;;;;22.13;16.75;;;;;;;12.83;100.00;100817.97;4770075;30;20043;-88
2022/06/08 03:55:31;;;;;;;28.20;16.70;;;;;;;12.87;100.00;100829.34;4769932;30;20088;-88
2022/06/08 03:57:58;;;;;;;21.23;15.20;;;;;;;12.92;100.00;100832.72;4754564;30;20056;-88
2022/06/08 04:00:28;;;;;;;21.35;15.35;;;;;;;12.96;100.00;100826.41;4758397;29;20122;-88
2022/06/08 04:03:16;;;;;;;19.58;14.93;;;;;;;13.02;100.00;100823.53;4763562;30;20063;-88
2022/06/08 04:05:44;;;;;;;18.85;14.48;;;;;;;13.05;100.00;100822.56;4755283;30;20058;-87
2022/06/08 04:08:15;;;;;;;20.13;14.85;;;;;;;13.05;100.00;100812.81;4741936;30;20061;-90
2022/06/08 04:10:48;;;;;;;19.33;13.77;;;;;;;13.11;100.00;100812.63;4748660;30;20533;-87
2022/06/08 04:13:14;;;;;;;19.13;14.50;;;;;;;13.16;100.00;100809.81;4737233;30;20267;-87
2022/06/08 04:15:44;;;;;;;18.58;13.88;;;;;;;13.15;100.00;100809.84;4728183;30;20298;-88
2022/06/08 04:18:24;;;;;;;18.80;13.32;;;;;;;13.21;100.00;100807.88;4731967;30;20468;-88
2022/06/08 04:20:56;;;;;;;16.13;13.27;;;;;;;13.22;100.00;100792.78;4763596;30;20783;-88
2022/06/08 04:23:28;;;;;;;15.85;11.25;;;;;;;13.23;100.00;100791.84;4763934;30;20519;-88
2022/06/08 04:25:56;;;;;;;15.18;12.23;;;;;;;13.25;100.00;100784.69;4745339;30;20139;-88
2022/06/08 04:28:23;;;;;;;14.32;12.15;;;;;;;13.36;100.00;100792.34;4758177;30;20531;-87
2022/06/08 04:30:54;;;;;;;15.13;12.23;;;;;;;13.38;100.00;100788.72;4738530;30;20063;-88
2022/06/08 04:33:21;;;;;;;14.20;10.95;;;;;;;13.41;100.00;100798.38;4759495;30;20562;-87
2022/06/08 04:35:48;;;;;;;15.20;11.13;;;;;;;13.45;100.00;100794.69;4751381;30;20437;-87
2022/06/08 04:38:16;;;;;;;13.50;11.00;;;;;;;13.48;100.00;100799.91;4734209;30;20083;-88
2022/06/08 04:40:43;;;;;;;14.45;11.88;;;;;;;13.46;100.00;100791.13;4747999;30;20052;-87
2022/06/08 04:43:09;;;;;;;14.32;11.05;;;;;;;13.52;100.00;100791.75;4736955;30;20056;-88
2022/06/08 04:45:36;;;;;;;14.15;9.90;;;;;;;13.54;100.00;100791.72;4764182;30;20104;-88
2022/06/08 04:48:06;;;;;;;13.48;10.82;;;;;;;13.58;100.00;100781.84;4739963;30;20056;-87
2022/06/08 04:50:33;;;;;;;15.90;10.82;;;;;;;13.61;100.00;100776.41;4751592;30;20040;-87
2022/06/08 04:53:01;;;;;;;16.77;11.77;;;;;;;13.63;100.00;100770.09;4737948;30;20051;-87
2022/06/08 04:55:28;;;;;;;14.40;11.20;;;;;;;13.75;100.00;100774.13;4748374;30;20105;-88
2022/06/08 04:57:53;;;;;;;13.95;10.27;;;;;;;13.81;100.00;100771.22;4732525;30;20052;-87
2022/06/08 05:00:22;;;;;;;13.45;9.80;;;;;;;13.85;100.00;100766.69;4751238;30;20496;-87
2022/06/08 05:02:50;;;;;;;12.43;9.55;;;;;;;13.89;100.00;100769.13;4751835;30;20059;-87
2022/06/08 05:05:26;;;;;;;13.38;10.88;;;;;;;13.94;100.00;100766.31;4753407;30;20051;-87
2022/06/08 05:07:53;;;;;;;17.20;11.45;;;;;;;13.97;100.00;100767.09;4754448;30;20475;-87
2022/06/08 05:10:22;;;;;;;15.63;10.63;;;;;;;14.04;100.00;100772.16;4749371;30;20067;-88
2022/06/08 05:12:48;;;;;;;24.48;11.35;;;;;;;14.10;100.00;100763.97;4755141;30;20047;-87
2022/06/08 05:15:21;;;;;;;13.55;11.07;;;;;;;14.14;100.00;100766.47;4730288;30;20054;-87
2022/06/08 05:17:46;;;;;;;11.38;9.57;;;;;;;14.18;100.00;100764.53;4772381;30;20137;-87
2022/06/08 05:20:14;;;;;;;10.77;8.68;;;;;;;14.19;100.00;100752.94;4730510;30;20167;-87
2022/06/08 05:22:43;;;;;;;14.30;9.13;;;;;;;14.26;100.00;100753.59;4771886;30;20050;-87
2022/06/08 05:25:11;;;;;;;15.02;9.32;;;;;;;14.28;100.00;100749.94;4772558;30;20043;-87
2022/06/08 05:27:38;;;;;;;12.95;8.20;;;;;;;14.27;99.94;100739.31;4751540;30;20114;-88
2022/06/08 05:30:06;;;;;;;10.38;8.25;;;;;;;14.30;100.00;100736.56;4739769;30;20325;-86
2022/06/08 05:32:32;;;;;;;12.70;8.15;;;;;;;14.31;100.00;100733.81;4766610;30;20044;-88
2022/06/08 05:34:59;;;;;;;8.35;7.05;;;;;;;14.36;99.76;100731.00;4737598;30;20047;-87
2022/06/08 05:37:25;;;;;;;10.20;8.02;;;;;;;14.40;100.00;100732.63;4739298;30;20044;-87
2022/06/08 05:39:51;;;;;;;10.48;7.60;;;;;;;14.40;100.00;100727.28;4725081;30;20055;-88
2022/06/08 05:42:17;;;;;;;9.40;6.72;;;;;;;14.42;99.49;100717.44;4738034;30;20372;-87
2022/06/08 05:44:43;;;;;;;9.10;7.35;;;;;;;14.46;99.13;100720.84;4742473;30;20043;-87
2022/06/08 05:47:09;;;;;;;9.85;6.82;;;;;;;14.48;99.65;100717.19;4733937;30;20146;-87
2022/06/08 05:49:34;;;;;;;8.00;6.57;;;;;;;14.51;100.00;100717.06;4736687;30;20055;-87
2022/06/08 05:52:04;;;;;;;11.88;7.30;;;;;;;14.52;100.00;100710.81;4750554;30;20461;-87
2022/06/08 05:54:32;;;;;;;9.52;6.95;;;;;;;14.59;98.32;100714.13;4786774;30;20043;-87
2022/06/08 05:56:58;;;;;;;9.43;7.10;;;;;;;14.61;99.65;100709.59;4741095;30;20135;-87
2022/06/08 05:59:29;;;;;;;8.15;6.78;;;;;;;14.65;99.00;100707.69;4739448;30;20059;-87
2022/06/08 06:01:54;;;;;;;10.77;6.45;;;;;;;14.67;97.24;100712.03;4748413;30;20063;-87
2022/06/08 06:04:20;;;;;;;7.90;6.93;;;;;;;14.71;98.88;100694.09;4752412;30;20056;-87
2022/06/08 06:06:47;;;;;;;10.43;7.25;;;;;;;14.79;98.82;100700.84;4741284;30;20564;-87
2022/06/08 06:09:17;;;;;;;10.25;7.15;;;;;;;14.88;99.16;100707.59;4771306;30;20047;-86
2022/06/08 06:11:44;;;;;;;10.30;6.88;;;;;;;14.93;99.15;100688.72;4757253;30;20568;-87
2022/06/08 06:14:10;;;;;;;11.02;7.50;;;;;;;15.02;99.48;100699.00;4739434;30;20048;-87
2022/06/08 06:16:40;;;;;;;8.77;6.78;;;;;;;15.07;98.85;100693.50;4766081;30;20134;-86
2022/06/08 06:19:05;;;;;;;10.75;7.30;;;;;;;15.13;98.29;100695.88;4753489;30;20123;-87
2022/06/08 06:21:42;;;;;;;12.18;7.13;;;;;;;15.19;99.17;100700.97;4752264;30;20074;-87
2022/06/08 06:24:19;;;;;;;10.23;7.30;;;;;;;15.20;98.38;100697.34;4739940;30;20063;-87
2022/06/08 06:27:06;;;;;;;10.98;6.70;;;;;;;15.25;97.73;100709.53;4755577;30;20130;-86
2022/06/08 06:29:51;;;;;;;8.90;6.63;;;;;;;15.27;97.89;100704.16;4753350;30;20043;-86
2022/06/08 06:32:29;;;;;;;8.45;6.35;;;;;;;15.28;97.66;100703.22;4741932;29;20055;-86
2022/06/08 06:34:56;;;;;;;9.38;6.97;;;;;;;15.33;98.09;100700.34;4769620;30;20055;-87
2022/06/08 06:37:22;;;;;;;8.95;6.40;;;;;;;15.38;98.34;100706.34;4765591;30;20089;-87
2022/06/08 06:39:49;;;;;;;8.88;6.60;;;;;;;15.44;99.79;100709.63;4731891;30;20489;-86
2022/06/08 06:42:25;;;;;;;9.80;6.50;;;;;;;15.49;100.00;100704.94;4757524;30;20116;-86
2022/06/08 06:45:10;;;;;;;10.82;5.57;;;;;;;15.55;98.68;100706.47;4755962;30;20149;-86
2022/06/08 06:47:41;;;;;;;7.95;5.75;;;;;;;15.56;96.80;100710.03;4752795;30;20043;-85
2022/06/08 06:50:18;;;;;;;11.77;5.63;;;;;;;15.67;97.52;100705.91;4740942;30;20083;-86
2022/06/08 06:52:45;;;;;;;9.57;4.75;;;;;;;15.72;97.69;100705.75;4752723;30;20117;-86
2022/06/08 06:55:25;;;;;;;8.85;5.18;;;;;;;15.80;96.85;100700.94;4751078;30;20047;-87
2022/06/08 06:57:54;;;;;;;8.35;4.65;;;;;;;15.86;94.91;100695.31;4751613;30;20043;-86
2022/06/08 07:00:24;;;;;;;9.52;5.30;;;;;;;16.00;95.40;100689.34;4753661;30;20047;-86
2022/06/08 07:02:50;;;;;;;7.05;4.70;;;;;;;16.10;94.44;100690.63;4752485;30;20231;-86
2022/06/08 07:05:22;;;;;;;9.30;4.97;;;;;;;16.24;92.98;100681.94;4738123;30;20047;-87
2022/06/08 07:07:48;;;;;;;10.18;4.05;;;;;;;16.49;93.76;100687.00;4752375;30;20054;-87
2022/06/08 07:10:14;;;;;;;9.18;4.22;;;;;;;16.62;93.15;100671.22;4755534;30;20042;-87
2022/06/08 07:12:40;;;;;;;9.05;4.32;;;;;;;16.70;90.37;100668.16;4770466;30;20063;-86
2022/06/08 07:15:07;;;;;;;9.93;4.25;;;;;;;16.71;89.14;100668.06;4779807;30;20433;-86
2022/06/08 07:17:32;;;;;;;9.65;4.32;;;;;;;16.75;89.14;100674.13;4755397;30;20043;-86
2022/06/08 07:19:58;;;;;;;7.88;3.40;;;;;;;16.70;89.43;100660.13;4756220;30;20101;-86
2022/06/08 07:22:24;;;;;;;7.65;3.95;;;;;;;16.83;88.66;100671.09;4744376;30;20050;-86
2022/06/08 07:24:50;;;;;;;6.32;3.80;;;;;;;17.03;90.06;100668.25;4746475;30;20421;-86
2022/06/08 07:27:17;;;;;;;8.75;3.83;;;;;;;17.17;89.71;100670.22;4737505;30;20035;-87
2022/06/08 07:29:42;;;;;;;7.97;3.97;;;;;;;17.27;89.15;100667.94;4752839;30;20055;-86
2022/06/08 07:32:08;;;;;;;7.38;3.78;;;;;;;17.27;87.76;100675.97;4752461;30;20052;-86
2022/06/08 07:34:34;;;;;;;8.05;4.05;;;;;;;17.34;87.20;100658.66;4752307;30;20123;-84
2022/06/08 07:37:00;;;;;;;8.82;4.15;;;;;;;17.45;86.14;100658.06;4764057;29;20184;-85
2022/06/08 07:39:26;;;;;;;10.50;4.07;;;;;;;17.59;85.15;100651.03;4769989;30;20519;-86
2022/06/08 07:41:52;;;;;;;11.00;4.15;;;;;;;17.73;85.16;100644.94;4769912;30;20054;-86
2022/06/08 07:44:19;;;;;;;8.98;4.53;;;;;;;17.87;85.76;100644.19;4754242;30;20054;-86
2022/06/08 07:46:44;;;;;;;7.53;4.13;;;;;;;17.93;85.96;100646.53;4737497;30;20059;-86
2022/06/08 07:49:37;;;;;;;8.60;3.45;;;;;;;17.93;82.51;100646.53;4752254;30;20572;-86
2022/06/08 07:52:05;;;;;;;5.95;3.45;;;;;;;18.00;84.19;100647.94;4751942;30;20052;-86
2022/06/08 07:54:31;;;;;;;6.03;2.97;;;;;;;18.15;82.10;100656.03;4751888;30;20044;-84
2022/06/08 07:56:58;;;;;;;8.20;3.38;;;;;;;18.13;82.04;100660.66;4745721;30;20194;-86
2022/06/08 07:59:31;;;;;;;6.20;3.40;;;;;;;18.04;81.22;100649.47;4751687;30;20424;-86
2022/06/08 08:01:57;;;;;;;7.40;3.40;;;;;;;17.97;82.76;100653.44;4751577;30;20043;-86
2022/06/08 08:04:23;;;;;;;6.60;3.20;;;;;;;17.98;81.41;100657.88;4737095;30;20048;-86
2022/06/08 08:06:49;;;;;;;10.90;3.50;;;;;;;17.91;80.11;100664.50;4737006;30;20063;-86
2022/06/08 08:09:19;;;;;;;7.53;3.53;;;;;;;17.92;81.58;100668.91;4745327;30;20063;-85
2022/06/08 08:11:46;;;;;;;13.65;3.58;;;;;;;17.87;80.41;100668.28;4770607;30;20139;-87
2022/06/08 08:14:12;;;;;;;9.75;3.17;;;;;;;17.89;81.06;100661.03;4737325;30;20493;-87
2022/06/08 08:16:39;;;;;;;9.07;3.60;;;;;;;17.96;78.98;100658.91;4746402;30;20389;-86
2022/06/08 08:19:05;;;;;;;12.77;3.35;;;;;;;17.87;80.05;100662.94;4744732;30;20039;-86
2022/06/08 08:21:32;;;;;;;8.32;3.28;;;;;;;17.87;80.33;100654.91;4744426;30;20044;-86
2022/06/08 08:23:59;;;;;;;9.13;3.55;;;;;;;17.89;80.21;100644.97;4751576;30;20501;-85
2022/06/08 08:26:28;;;;;;;10.23;3.10;;;;;;;17.90;79.75;100652.03;4777098;30;20043;-85
2022/06/08 08:28:55;;;;;;;17.30;4.40;;;;;;;17.93;80.48;100661.75;4742111;30;20054;-86
2022/06/08 08:31:21;;;;;;;12.05;3.20;;;;;;;17.96;80.40;100657.09;4761589;30;20153;-86
2022/06/08 08:33:47;;;;;;;10.27;3.70;;;;;;;17.97;80.28;100669.50;4751783;30;20492;-84
2022/06/08 08:36:13;;;;;;;10.85;3.42;;;;;;;17.87;78.86;100654.03;4761860;30;20129;-85
2022/06/08 08:38:38;;;;;;;11.50;3.38;;;;;;;17.90;80.03;100662.75;4765002;30;20122;-85
2022/06/08 08:42:20;;;;;;;8.90;3.10;;;;;;;17.93;79.74;100664.44;4772812;30;20423;-85
2022/06/08 08:43:50;;;;;;;8.02;3.45;;;;;;;17.96;82.04;100659.75;4776623;30;20131;-85
2022/06/08 08:46:35;;;;;;;12.95;3.53;;;;;;;17.95;80.04;100657.16;4767623;30;20544;-85
2022/06/08 08:49:10;;;;;;;10.95;3.13;;;;;;;17.88;79.47;100648.63;4755176;30;20062;-86
2022/06/08 08:51:47;;;;;;;13.48;3.33;;;;;;;17.84;79.69;100660.44;4754966;30;20492;-85
2022/06/08 08:54:22;;;;;;;10.48;3.28;;;;;;;17.80;79.37;100651.72;4754699;30;20136;-85
2022/06/08 08:56:51;;;;;;;10.00;3.03;;;;;;;17.81;79.41;100661.47;4769019;30;20060;-86
2022/06/08 08:59:22;;;;;;;6.85;2.83;;;;;;;17.81;78.67;100660.63;4754693;30;20051;-86
2022/06/08 09:01:55;;;;;;;12.50;3.67;;;;;;;17.85;80.00;100656.78;4754804;30;20389;-86
2022/06/08 09:04:34;;;;;;;8.48;3.08;;;;;;;17.88;80.06;100669.16;4754500;30;20449;-86
2022/06/08 09:07:17;;;;;;;8.27;3.58;;;;;;;17.87;79.44;100667.44;4770709;30;20366;-85
2022/06/08 09:09:43;;;;;;;9.63;3.25;;;;;;;17.92;80.76;100652.84;4754879;30;20044;-85
2022/06/08 09:12:20;;;;;;;7.43;2.80;;;;;;;17.91;78.87;100667.19;4783228;29;20073;-86
2022/06/08 09:14:58;;;;;;;15.02;3.78;;;;;;;17.85;77.91;100664.81;4769286;30;20143;-86
2022/06/08 09:17:33;;;;;;;9.80;3.50;;;;;;;17.82;78.09;100673.03;4772419;30;20085;-85
2022/06/08 09:20:01;;;;;;;6.20;2.60;;;;;;;17.75;77.61;100667.09;4760536;30;20043;-86
2022/06/08 09:22:29;;;;;;;9.60;2.80;;;;;;;17.70;76.55;100666.50;4759090;30;20039;-85
2022/06/08 09:24:59;;;;;;;8.93;2.85;;;;;;;17.53;77.01;100672.78;4761513;30;20112;-85
2022/06/08 09:27:34;;;;;;;17.25;2.83;;;;;;;17.44;78.06;100665.25;4757896;29;20419;-86
2022/06/08 09:30:05;;;;;;;6.82;2.92;;;;;;;17.43;79.30;100663.50;4778140;30;20051;-86
2022/06/08 09:32:44;;;;;;;15.18;3.30;;;;;;;17.48;80.84;100668.59;4770796;30;20408;-86
2022/06/08 09:35:22;;;;;;;13.38;3.20;;;;;;;17.45;80.58;100661.59;4784975;30;20143;-86
2022/06/08 09:37:51;;;;;;;12.70;3.53;;;;;;;17.38;80.39;100660.19;4770145;30;20501;-86
2022/06/08 09:40:38;;;;;;;9.27;3.38;;;;;;;17.35;81.62;100666.56;4754407;30;20063;-87
2022/06/08 09:43:30;;;;;;;10.57;2.92;;;;;;;17.35;82.49;100663.91;4771932;30;20416;-86
2022/06/08 09:46:19;;;;;;;10.63;3.40;;;;;;;17.30;82.44;100662.44;4755558;29;20069;-86
2022/06/08 09:52:13;;;;;;;10.57;3.00;;;;;;;17.20;83.43;100670.94;4755190;30;20520;-87
2022/06/08 09:54:54;;;;;;;9.85;3.45;;;;;;;17.16;85.56;100671.16;4766387;29;20058;-86
2022/06/08 09:57:44;;;;;;;11.60;3.55;;;;;;;17.17;84.11;100664.88;4751879;30;20051;-87
2022/06/08 10:00:20;;;;;;;10.02;3.72;;;;;;;17.09;85.49;100665.28;4770089;30;20477;-87
2022/06/08 10:02:51;;;;;;;7.68;3.90;;;;;;;17.08;87.04;100668.88;4760845;30;20059;-86
2022/06/08 10:06:24;;;;;;;18.83;3.95;;;;;;;17.09;85.58;100672.44;4766250;30;20122;-86
2022/06/08 10:08:56;;;;;;;11.98;4.00;;;;;;;16.97;86.38;100669.44;4701654;30;20053;-86
2022/06/08 10:11:45;;;;;;;17.38;3.95;;;;;;;16.97;84.51;100672.13;4748573;30;20116;-86
2022/06/08 10:14:39;;;;;;;8.20;3.10;;;;;;;16.77;85.42;100672.25;4764544;30;20052;-86
2022/06/08 10:17:23;;;;;;;11.18;4.15;;;;;;;16.73;86.47;100668.84;4782103;29;20397;-86
2022/06/08 10:19:54;;;;;;;12.18;3.75;;;;;;;16.72;87.63;100674.28;4764213;30;20069;-86
2022/06/08 10:22:23;;;;;;;10.65;3.58;;;;;;;16.69;87.48;100666.41;4758781;30;20201;-86
2022/06/08 10:24:58;;;;;;;9.60;2.70;;;;;;;16.63;86.43;100672.94;4761426;30;20465;-86
2022/06/08 10:27:52;;;;;;;8.95;2.80;;;;;;;16.53;86.79;100679.66;4757229;30;20506;-88
2022/06/08 10:30:29;;;;;;;8.88;2.55;;;;;;;16.43;87.64;100670.38;4765466;30;20047;-86
2022/06/08 10:33:11;;;;;;;16.42;3.60;;;;;;;16.37;86.86;100673.34;4768095;30;20108;-86
2022/06/08 10:35:48;;;;;;;11.95;3.30;;;;;;;16.27;89.05;100664.91;4773571;30;20102;-87
2022/06/08 10:38:24;;;;;;;10.02;3.05;;;;;;;16.24;88.74;100665.91;4777131;30;20120;-86
2022/06/08 10:40:54;;;;;;;8.90;3.28;;;;;;;16.29;90.08;100668.34;4750156;30;20071;-86
2022/06/08 10:43:24;;;;;;;8.38;3.58;;;;;;;16.28;91.33;100672.84;4761443;30;20062;-86
2022/06/08 10:46:02;;;;;;;9.43;3.30;;;;;;;16.29;90.51;100676.38;4769033;30;20464;-86
2022/06/08 10:48:33;;;;;;;12.50;3.03;;;;;;;16.17;90.20;100669.84;4753020;30;20043;-86
2022/06/08 10:51:19;;;;;;;10.77;3.38;;;;;;;16.18;90.23;100670.69;4753105;30;20164;-87
2022/06/08 10:56:36;;;;;;;10.65;3.17;;;;;;;16.08;91.88;100664.94;4761650;30;20044;-86
2022/06/08 10:59:07;;;;;;;12.55;3.10;;;;;;;16.08;91.65;100667.59;4768804;30;20088;-86
2022/06/08 11:01:50;;;;;;;15.63;3.45;;;;;;;16.07;93.61;100669.41;4752370;30;20055;-87
2022/06/08 11:04:29;;;;;;;19.45;4.13;;;;;;;16.08;92.46;100663.13;4738016;30;20048;-85
2022/06/08 11:07:07;;;;;;;13.65;3.58;;;;;;;16.07;92.18;100664.06;4737821;30;20110;-86
2022/06/08 11:09:35;;;;;;;10.35;3.70;;;;;;;16.11;92.90;100654.94;4763016;30;20411;-86
2022/06/08 11:12:11;;;;;;;15.18;4.10;;;;;;;16.11;94.30;100654.09;4768969;30;20044;-86
2022/06/08 11:15:23;;;;;;;22.85;4.35;;;;;;;16.21;93.14;100651.84;4752777;30;20059;-85
2022/06/08 11:17:58;;;;;;;16.55;3.63;;;;;;;16.23;93.50;100652.63;4739381;30;20065;-85
2022/06/08 11:20:35;;;;;;;9.55;3.42;;;;;;;16.27;93.66;100643.50;4752802;30;20051;-86
2022/06/08 11:23:23;;;;;;;12.40;3.20;;;;;;;16.32;93.25;100644.19;4752590;30;20078;-84
2022/06/08 11:26:07;;;;;;;10.88;3.65;;;;;;;16.25;90.48;100635.59;4754071;30;20047;-85
2022/06/08 11:28:33;;;;;;;10.55;2.67;;;;;;;16.21;90.58;100639.34;4752697;30;20472;-86
2022/06/08 11:31:02;;;;;;;9.77;2.90;;;;;;;16.16;91.02;100633.38;4757478;30;20106;-85
2022/06/08 11:33:49;;;;;;;13.88;3.10;;;;;;;16.12;90.70;100629.09;4786344;29;20039;-84
2022/06/08 11:36:40;;;;;;;9.18;2.53;;;;;;;16.04;90.81;100623.25;4737292;30;20082;-85
2022/06/08 11:39:21;;;;;;;5.85;2.30;;;;;;;16.04;90.06;100620.59;4755162;30;20500;-86
2022/06/08 11:42:45;;;;;;;11.43;3.10;;;;;;;16.05;89.14;100617.00;4746984;30;20051;-86
2022/06/08 11:45:18;;;;;;;6.65;2.65;;;;;;;15.95;89.87;100616.56;4730685;30;20056;-85
2022/06/08 11:47:52;;;;;;;6.95;2.50;;;;;;;15.93;91.96;100612.25;4754115;30;20118;-85
2022/06/08 11:50:30;;;;;;;11.57;2.80;;;;;;;15.96;91.65;100614.75;4761573;30;20047;-85